Airfield :







YOU CAN JOIN US ON...

 
LOGIN :

Register | Disclaimer

   EN    FR    IT 

 









Legend :    VFR   Marginal VFR   IFR   Intensive IFR   Very Intensive IFR
Visi :
Ceiling :
>= 8 km
>= 3000ft
5 to 8 km
1000 to 3000 ft
1500m to 5 km
500 to 1000 ft
800 to 1500m
200 to 500 ft
< 800m
< 200 ft
Symbols :   Thunderstorms  Fog  Heavy snow  Heavy precipitations  Wind > 20 kt






- Airport Elevation : 129 ft
- IATA code : YVP


CYVP - Kuujjuak

CURRENT METAR :
  • 062016Z 31009G16KT 10SM -SN DRSN SCT020 BKN026 BKN055 M13/M16 A2969 RMK SC4SC3SC1 SLP061

EXPIRED METARs :
  • 062000Z 31014G20KT 10SM -SN DRSN SCT014 BKN026 OVC058 M13/M16 A2969 RMK SC4SC3SC1 VIS LWR SW PRESRR SLP059
  • 061900Z 31016G24KT 13SM -SN DRSN SCT014 OVC062 M12/M15 A2964 RMK SF4SC4 SLP043
  • 061833Z 32014G25KT 12SM -SN DRSN FEW009 SCT013 OVC058 M11/M14 A2963 RMK SF1SF4SC4 SF TR SLP038
  • 061800Z 32016G24KT 3SM -SN DRSN BKN014 OVC035 M11/M14 A2961 RMK SN3SC3SC2 /S03/ SLP033
  • 061750Z 31017G28KT 3SM -SN DRSN BKN014 OVC028 M10/M13 A2961 RMK SN3SF3SC2 VIS HIER SE SLP032
  • 061740Z 32017G24KT 2SM -SN DRSN BKN014 OVC028 M10/M13 A2961 RMK SN4SF2SC2 VIS VRB 1 1/2 - 2 1/2 SLP032
  • 061726Z 32017G23KT 1SM R07/4000VP6000FT/U -SN DRSN OVC013 M10/M12 A2961 RMK SN5ST3 VIS VRB 3/4 - 1 1/4 SLP031

TAF AMD TAF CYVP
Valid from the 06 at 19:00 until the 07 at 06:00 UTC


061904Z 0619/0706 32015G25KT P6SM -SN SCT015 BKN060
TEMPO 0619/0621 11/2SM -SN BLSN OVC010
PROB30 0619/0621 1/2SM SN BLSN VV008
FM062100 32012G22KT 1/2SM SN BLSN VV008
TEMPO 0621/0624 3SM -SN OVC020
FM070000 29010KT 1SM -SN OVC015 RMK NXT FCST BY 070000Z



MET'MAP, your aeronautical weather chart ! - Copyright ORBIFLY December 2007 - Disclaimer

ORBIFLY MET'MAP TEAM :

Programming & Development : Alexandra Zaïnal
Concept & original design : Baudouin d'Aumeries
Assistance for programming : Marc-Olivier Méhu
Technical & hardware support : Manuel Goepfert

Contact : metmap@orbifly.com




SOURCES & CREDITS :

   NOAA